createdAt,value
2016-12-27T00:00:30.575Z,102075
2016-12-27T00:01:30.606Z,102086
2016-12-27T00:02:30.755Z,102089
2016-12-27T00:03:31.337Z,102091
2016-12-27T00:04:30.866Z,102085
2016-12-27T00:05:31.459Z,102089
2016-12-27T00:06:31.453Z,102091
2016-12-27T00:07:31.512Z,102088
2016-12-27T00:08:31.113Z,102095
2016-12-27T00:09:31.647Z,102088
2016-12-27T00:10:31.200Z,102099
2016-12-27T00:11:31.801Z,102099
2016-12-27T00:12:31.317Z,102094
2016-12-27T00:13:31.917Z,102090
2016-12-27T00:14:32.020Z,102095
2016-12-27T00:15:31.489Z,102094
2016-12-27T00:16:32.126Z,102098
2016-12-27T00:17:32.200Z,102096
2016-12-27T00:18:32.212Z,102094
2016-12-27T00:19:32.253Z,102103
2016-12-27T00:20:31.770Z,102105
2016-12-27T00:21:32.363Z,102105
2016-12-27T00:22:32.369Z,102100
2016-12-27T00:23:32.444Z,102102
2016-12-27T00:24:32.505Z,102102
2016-12-27T00:25:32.534Z,102098
2016-12-27T00:26:32.066Z,102099
2016-12-27T00:27:32.044Z,102095
2016-12-27T00:28:32.150Z,102096
2016-12-27T00:29:32.232Z,102099
2016-12-27T00:30:32.277Z,102104
2016-12-27T00:31:32.333Z,102104
2016-12-27T00:32:32.858Z,102105
2016-12-27T00:33:32.401Z,102096
2016-12-27T00:34:32.476Z,102104
2016-12-27T00:35:32.637Z,102110
2016-12-27T00:36:32.633Z,102101
2016-12-27T00:37:33.303Z,102108
2016-12-27T00:38:32.786Z,102105
2016-12-27T00:39:33.458Z,102099
2016-12-27T00:40:33.545Z,102103
2016-12-27T00:41:33.022Z,102107
2016-12-27T00:42:33.654Z,102104
2016-12-27T00:43:33.702Z,102092
2016-12-27T00:44:33.862Z,102108
2016-12-27T00:45:34.359Z,102108
2016-12-27T00:46:33.879Z,102106
2016-12-27T00:47:34.116Z,102099
2016-12-27T00:48:33.463Z,102113
2016-12-27T00:49:34.095Z,102110
2016-12-27T00:50:34.140Z,102102
2016-12-27T00:51:34.201Z,102112
2016-12-27T00:52:33.697Z,102110
2016-12-27T00:53:34.321Z,102110
2016-12-27T00:54:33.883Z,102125
2016-12-27T00:55:34.387Z,102124
2016-12-27T00:56:34.417Z,102128
2016-12-27T00:57:33.948Z,102118
2016-12-27T00:58:34.595Z,102131
2016-12-27T00:59:34.131Z,102131
2016-12-27T01:00:34.699Z,102134
2016-12-27T01:01:34.747Z,102134
2016-12-27T01:02:34.301Z,102130
2016-12-27T01:03:34.859Z,102127
2016-12-27T01:04:34.899Z,102128
2016-12-27T01:05:34.989Z,102127
2016-12-27T01:06:35.018Z,102137
2016-12-27T01:07:35.045Z,102134
2016-12-27T01:08:34.610Z,102129
2016-12-27T01:09:34.642Z,102138
2016-12-27T01:10:35.233Z,102132
2016-12-27T01:11:35.290Z,102133
2016-12-27T01:12:35.368Z,102132
2016-12-27T01:13:35.425Z,102130
2016-12-27T01:14:35.469Z,102130
2016-12-27T01:15:34.977Z,102137
2016-12-27T01:16:35.653Z,102133
2016-12-27T01:17:35.169Z,102142
2016-12-27T01:18:35.756Z,102148
2016-12-27T01:19:35.795Z,102148
2016-12-27T01:20:35.882Z,102147
2016-12-27T01:21:35.896Z,102153
2016-12-27T01:22:35.943Z,102155
2016-12-27T01:23:35.491Z,102151
2016-12-27T01:24:36.029Z,102149
2016-12-27T01:25:35.522Z,102161
2016-12-27T01:26:35.527Z,102167
2016-12-27T01:27:36.124Z,102172
2016-12-27T01:28:36.257Z,102170
2016-12-27T01:29:35.794Z,102173
2016-12-27T01:30:35.853Z,102174
2016-12-27T01:31:35.903Z,102172
2016-12-27T01:32:36.499Z,102170
2016-12-27T01:33:36.572Z,102170
2016-12-27T01:34:36.604Z,102167
2016-12-27T01:35:36.734Z,102172
2016-12-27T01:36:36.743Z,102171
2016-12-27T01:37:36.263Z,102178
2016-12-27T01:38:36.323Z,102175
2016-12-27T01:39:36.358Z,102169
2016-12-27T01:40:36.873Z,102171
2016-12-27T01:41:36.966Z,102177
2016-12-27T01:42:36.529Z,102177
2016-12-27T01:43:36.574Z,102187
2016-12-27T01:44:37.160Z,102180
2016-12-27T01:45:36.690Z,102182
2016-12-27T01:46:36.723Z,102179
2016-12-27T01:47:37.337Z,102186
2016-12-27T01:48:36.744Z,102192
2016-12-27T01:49:36.773Z,102186
2016-12-27T01:50:37.357Z,102184
2016-12-27T01:51:36.846Z,102189
2016-12-27T01:52:36.800Z,102191
2016-12-27T01:53:36.848Z,102194
2016-12-27T01:54:37.472Z,102191
2016-12-27T01:55:37.006Z,102197
2016-12-27T01:56:37.074Z,102200
2016-12-27T01:57:37.621Z,102198
2016-12-27T01:58:37.093Z,102202
2016-12-27T01:59:37.131Z,102201
2016-12-27T02:00:37.194Z,102199
2016-12-27T02:01:37.190Z,102199
2016-12-27T02:02:37.203Z,102202
2016-12-27T02:03:37.247Z,102201
2016-12-27T02:04:37.285Z,102198
2016-12-27T02:05:37.871Z,102184
2016-12-27T02:06:37.940Z,102185
2016-12-27T02:07:37.965Z,102182
2016-12-27T02:08:38.024Z,102166
2016-12-27T02:09:38.096Z,102178
2016-12-27T02:10:38.126Z,102185
2016-12-27T02:11:37.597Z,102179
2016-12-27T02:12:37.625Z,102191
2016-12-27T02:13:37.794Z,102196
2016-12-27T02:14:37.892Z,102185
2016-12-27T02:15:37.781Z,102195
2016-12-27T02:16:38.376Z,102189
2016-12-27T02:17:37.898Z,102190
2016-12-27T02:18:37.980Z,102191
2016-12-27T02:19:38.550Z,102193
2016-12-27T02:20:38.628Z,102184
2016-12-27T02:21:38.685Z,102186
2016-12-27T02:22:38.189Z,102189
2016-12-27T02:23:38.208Z,102184
2016-12-27T02:24:38.271Z,102193
2016-12-27T02:25:38.409Z,102185
2016-12-27T02:26:39.042Z,102194
2016-12-27T02:27:39.077Z,102188
2016-12-27T02:28:38.675Z,102184
2016-12-27T02:29:38.665Z,102192
2016-12-27T02:30:39.245Z,102194
2016-12-27T02:31:39.259Z,102187
2016-12-27T02:32:38.870Z,102194
2016-12-27T02:33:38.899Z,102197
2016-12-27T02:34:39.535Z,102202
2016-12-27T02:35:38.972Z,102193
2016-12-27T02:36:39.547Z,102205
2016-12-27T02:37:38.994Z,102202
2016-12-27T02:38:39.113Z,102201
2016-12-27T02:39:39.671Z,102196
2016-12-27T02:40:39.140Z,102200
2016-12-27T02:41:39.760Z,102201
2016-12-27T02:42:39.270Z,102205
2016-12-27T02:43:39.905Z,102204
2016-12-27T02:44:39.359Z,102196
2016-12-27T02:45:39.529Z,102202
2016-12-27T02:46:39.654Z,102202
2016-12-27T02:47:40.194Z,102200
2016-12-27T02:48:40.291Z,102199
2016-12-27T02:49:40.216Z,102207
2016-12-27T02:50:40.323Z,102198
2016-12-27T02:51:39.881Z,102204
2016-12-27T02:52:40.441Z,102208
2016-12-27T02:53:40.451Z,102195
2016-12-27T02:54:39.945Z,102199
2016-12-27T02:55:39.984Z,102210
2016-12-27T02:56:40.084Z,102209
2016-12-27T02:57:40.135Z,102201
2016-12-27T02:58:40.756Z,102210
2016-12-27T02:59:40.369Z,102210
2016-12-27T03:00:40.364Z,102195
2016-12-27T03:01:40.317Z,102208
2016-12-27T03:02:40.857Z,102204
2016-12-27T03:03:40.922Z,102210
2016-12-27T03:04:40.428Z,102207
2016-12-27T03:05:40.945Z,102210
2016-12-27T03:06:41.040Z,102217
2016-12-27T03:07:40.575Z,102214
2016-12-27T03:08:41.106Z,102209
2016-12-27T03:09:40.652Z,102214
2016-12-27T03:10:41.246Z,102216
2016-12-27T03:11:41.331Z,102212
2016-12-27T03:12:40.827Z,102217
2016-12-27T03:13:40.924Z,102219
2016-12-27T03:14:40.953Z,102217
2016-12-27T03:15:41.591Z,102212
2016-12-27T03:16:41.694Z,102213
2016-12-27T03:17:41.262Z,102214
2016-12-27T03:18:42.096Z,102214
2016-12-27T03:19:41.321Z,102203
2016-12-27T03:20:41.302Z,102209
2016-12-27T03:21:41.397Z,102213
2016-12-27T03:22:41.963Z,102220
2016-12-27T03:23:41.485Z,102220
2016-12-27T03:24:41.555Z,102216
2016-12-27T03:25:42.081Z,102214
2016-12-27T03:26:42.148Z,102212
2016-12-27T03:27:41.669Z,102218
2016-12-27T03:28:41.691Z,102215
2016-12-27T03:29:42.338Z,102224
2016-12-27T03:30:42.348Z,102222
2016-12-27T03:31:42.379Z,102221
2016-12-27T03:32:42.349Z,102223
2016-12-27T03:33:42.467Z,102223
2016-12-27T03:34:41.979Z,102229
2016-12-27T03:35:41.985Z,102222
2016-12-27T03:36:41.991Z,102224
2016-12-27T03:37:42.130Z,102239
2016-12-27T03:38:42.190Z,102237
2016-12-27T03:39:42.904Z,102240
2016-12-27T03:40:42.951Z,102246
2016-12-27T03:41:43.044Z,102247
2016-12-27T03:42:43.674Z,102246
2016-12-27T03:43:43.128Z,102248
2016-12-27T03:44:43.058Z,102251
2016-12-27T03:45:42.440Z,102260
2016-12-27T03:46:42.443Z,102264
2016-12-27T03:47:43.054Z,102266
2016-12-27T03:48:43.226Z,102270
2016-12-27T03:49:43.154Z,102262
2016-12-27T03:50:43.231Z,102269
2016-12-27T03:51:43.297Z,102271
2016-12-27T03:52:42.798Z,102276
2016-12-27T03:53:42.902Z,102281
2016-12-27T03:54:43.461Z,102282
2016-12-27T03:55:42.898Z,102279
2016-12-27T03:56:43.607Z,102281
2016-12-27T03:57:43.613Z,102290
2016-12-27T03:58:43.150Z,102288
2016-12-27T03:59:43.158Z,102285
2016-12-27T04:00:43.216Z,102287
2016-12-27T04:01:43.157Z,102295
2016-12-27T04:02:43.820Z,102300
2016-12-27T04:03:43.460Z,102299
2016-12-27T04:04:43.967Z,102305
2016-12-27T04:05:43.957Z,102303
2016-12-27T04:06:44.037Z,102304
2016-12-27T04:07:43.629Z,102304
2016-12-27T04:08:44.228Z,102296
2016-12-27T04:09:44.328Z,102304
2016-12-27T04:10:44.375Z,102307
2016-12-27T04:11:43.893Z,102307
2016-12-27T04:12:44.416Z,102310
2016-12-27T04:13:44.493Z,102312
2016-12-27T04:14:44.015Z,102313
2016-12-27T04:15:44.580Z,102315
2016-12-27T04:16:44.089Z,102315
2016-12-27T04:17:44.646Z,102305
2016-12-27T04:18:44.722Z,102314
2016-12-27T04:19:44.178Z,102317
2016-12-27T04:20:44.762Z,102313
2016-12-27T04:21:44.750Z,102316
2016-12-27T04:22:44.309Z,102308
2016-12-27T04:23:44.883Z,102320
2016-12-27T04:24:44.930Z,102328
2016-12-27T04:25:44.502Z,102324
2016-12-27T04:26:44.556Z,102329
2016-12-27T04:27:45.171Z,102332
2016-12-27T04:28:44.628Z,102330
2016-12-27T04:29:44.714Z,102327
2016-12-27T04:30:44.747Z,102329
2016-12-27T04:31:44.838Z,102333
2016-12-27T04:32:45.456Z,102322
2016-12-27T04:33:45.461Z,102331
2016-12-27T04:34:45.046Z,102330
2016-12-27T04:35:45.055Z,102333
2016-12-27T04:36:45.087Z,102330
2016-12-27T04:37:45.688Z,102327
2016-12-27T04:38:45.781Z,102329
2016-12-27T04:39:45.179Z,102332
2016-12-27T04:40:45.753Z,102328
2016-12-27T04:41:45.333Z,102333
2016-12-27T04:42:45.335Z,102336
2016-12-27T04:43:45.359Z,102331
2016-12-27T04:44:45.394Z,102323
2016-12-27T04:45:45.489Z,102333
2016-12-27T04:46:46.070Z,102333
2016-12-27T04:47:46.107Z,102319
2016-12-27T04:48:46.140Z,102335
2016-12-27T04:49:46.192Z,102336
2016-12-27T04:50:46.292Z,102338
2016-12-27T04:51:45.811Z,102341
2016-12-27T04:52:46.335Z,102341
2016-12-27T04:53:45.869Z,102340
2016-12-27T04:54:45.878Z,102347
2016-12-27T04:55:45.943Z,102346
2016-12-27T04:56:46.542Z,102348
2016-12-27T04:57:46.577Z,102347
2016-12-27T04:58:46.632Z,102354
2016-12-27T04:59:46.125Z,102351
2016-12-27T05:00:46.619Z,102352
2016-12-27T05:01:46.136Z,102358
2016-12-27T05:02:46.178Z,102360
2016-12-27T05:03:46.343Z,102364
2016-12-27T05:04:46.846Z,102364
2016-12-27T05:05:46.938Z,102358
2016-12-27T05:06:46.940Z,102359
2016-12-27T05:07:47.025Z,102353
2016-12-27T05:08:47.090Z,102353
2016-12-27T05:09:46.515Z,102356
2016-12-27T05:10:46.658Z,102361
2016-12-27T05:11:47.239Z,102358
2016-12-27T05:12:47.279Z,102359
2016-12-27T05:13:46.802Z,102361
2016-12-27T05:14:46.814Z,102357
2016-12-27T05:15:46.910Z,102362
2016-12-27T05:16:47.491Z,102358
2016-12-27T05:17:47.609Z,102359
2016-12-27T05:18:47.701Z,102347
2016-12-27T05:19:47.174Z,102357
2016-12-27T05:20:47.754Z,102361
2016-12-27T05:21:47.805Z,102359
2016-12-27T05:22:47.889Z,102358
2016-12-27T05:23:47.408Z,102362
2016-12-27T05:24:47.943Z,102363
2016-12-27T05:25:47.491Z,102362
2016-12-27T05:26:47.436Z,102356
2016-12-27T05:27:48.052Z,102350
2016-12-27T05:28:48.015Z,102362
2016-12-27T05:29:47.624Z,102359
2016-12-27T05:30:48.186Z,102362
2016-12-27T05:31:48.179Z,102354
2016-12-27T05:32:47.721Z,102363
2016-12-27T05:33:48.321Z,102364
2016-12-27T05:34:47.799Z,102367
2016-12-27T05:35:48.450Z,102361
2016-12-27T05:36:48.438Z,102361
2016-12-27T05:37:48.496Z,102357
2016-12-27T05:38:48.577Z,102358
2016-12-27T05:39:48.636Z,102366
2016-12-27T05:40:48.680Z,102363
2016-12-27T05:41:48.658Z,102368
2016-12-27T05:42:49.045Z,102362
2016-12-27T05:43:48.793Z,102370
2016-12-27T05:44:48.243Z,102360
2016-12-27T05:45:48.289Z,102372
2016-12-27T05:46:48.902Z,102371
2016-12-27T05:47:49.006Z,102373
2016-12-27T05:48:49.170Z,102369
2016-12-27T05:49:48.649Z,102378
2016-12-27T05:50:49.202Z,102377
2016-12-27T05:51:49.287Z,102380
2016-12-27T05:52:48.829Z,102389
2016-12-27T05:53:48.851Z,102392
2016-12-27T05:54:49.511Z,102397
2016-12-27T05:55:49.586Z,102395
2016-12-27T05:56:49.009Z,102405
2016-12-27T05:57:49.048Z,102407
2016-12-27T05:58:49.619Z,102409
2016-12-27T05:59:49.155Z,102411
2016-12-27T06:00:49.795Z,102412
2016-12-27T06:01:49.868Z,102414
2016-12-27T06:02:49.826Z,102408
2016-12-27T06:03:49.955Z,102408
2016-12-27T06:04:49.375Z,102403
2016-12-27T06:05:49.973Z,102401
2016-12-27T06:06:49.963Z,102404
2016-12-27T06:07:49.468Z,102402
2016-12-27T06:08:50.095Z,102404
2016-12-27T06:09:49.541Z,102401
2016-12-27T06:10:49.602Z,102411
2016-12-27T06:11:50.181Z,102406
2016-12-27T06:12:49.720Z,102413
2016-12-27T06:13:50.331Z,102422
2016-12-27T06:14:50.317Z,102421
2016-12-27T06:15:49.813Z,102418
2016-12-27T06:16:49.825Z,102425
2016-12-27T06:32:51.301Z,102449
2016-12-27T06:33:51.389Z,102436
2016-12-27T06:34:50.937Z,102448
2016-12-27T06:35:50.895Z,102444
2016-12-27T06:36:51.459Z,102450
2016-12-27T06:38:51.701Z,102458
2016-12-27T06:39:51.632Z,102470
2016-12-27T06:40:51.181Z,102468
2016-12-27T06:41:51.203Z,102463
2016-12-27T06:42:51.207Z,102467
2016-12-27T06:43:51.183Z,102467
2016-12-27T06:44:52.623Z,102468
2016-12-27T06:45:51.349Z,102470
2016-12-27T06:46:52.548Z,102471
2016-12-27T06:47:51.978Z,102477
2016-12-27T06:48:52.617Z,102475
2016-12-27T06:49:51.505Z,102475
2016-12-27T06:50:51.617Z,102470
2016-12-27T06:51:51.605Z,102475
2016-12-27T06:52:51.666Z,102477
2016-12-27T06:53:52.200Z,102478
2016-12-27T06:54:51.667Z,102478
2016-12-27T06:55:51.679Z,102475
2016-12-27T06:56:51.735Z,102481
2016-12-27T06:57:51.771Z,102469
2016-12-27T06:58:51.853Z,102482
2016-12-27T06:59:51.898Z,102488
2016-12-27T07:00:52.494Z,102481
2016-12-27T07:01:52.481Z,102491
2016-12-27T07:02:52.521Z,102493
2016-12-27T07:03:52.595Z,102493
2016-12-27T07:04:52.105Z,102490
2016-12-27T07:05:52.164Z,102491
2016-12-27T07:06:52.236Z,102493
2016-12-27T07:07:52.778Z,102489
2016-12-27T07:08:52.353Z,102492
2016-12-27T07:09:52.902Z,102495
2016-12-27T07:10:52.975Z,102493
2016-12-27T07:11:52.997Z,102494
2016-12-27T07:12:52.568Z,102494
2016-12-27T07:13:53.193Z,102496
2016-12-27T07:14:52.683Z,102483
2016-12-27T07:15:52.713Z,102494
2016-12-27T07:16:52.741Z,102495
2016-12-27T07:17:53.314Z,102496
2016-12-27T07:18:53.389Z,102498
2016-12-27T07:19:52.907Z,102495
2016-12-27T07:20:52.910Z,102495
2016-12-27T07:21:53.457Z,102496
2016-12-27T07:22:53.474Z,102496
2016-12-27T07:23:53.000Z,102489
2016-12-27T07:24:53.070Z,102501
2016-12-27T07:25:53.112Z,102496
2016-12-27T07:26:53.172Z,102504
2016-12-27T07:27:53.168Z,102504
2016-12-27T07:28:53.734Z,102502
2016-12-27T07:29:53.275Z,102506
2016-12-27T07:30:53.329Z,102503
2016-12-27T07:31:53.873Z,102507
2016-12-27T07:32:53.415Z,102509
2016-12-27T07:33:53.968Z,102499
2016-12-27T07:34:53.991Z,102505
2016-12-27T07:35:53.481Z,102499
2016-12-27T07:36:53.529Z,102510
2016-12-27T07:37:53.555Z,102513
2016-12-27T07:38:54.119Z,102514
2016-12-27T07:39:54.174Z,102514
2016-12-27T07:40:53.682Z,102518
2016-12-27T07:41:53.722Z,102515
2016-12-27T07:42:54.316Z,102517
2016-12-27T07:57:55.231Z,102539
2016-12-27T07:58:54.770Z,102532
2016-12-27T07:59:54.853Z,102542
2016-12-27T08:00:54.886Z,102547
2016-12-27T08:01:55.429Z,102551
2016-12-27T08:02:55.495Z,102549
2016-12-27T08:04:55.669Z,102553
2016-12-27T08:05:55.670Z,102552
2016-12-27T08:06:55.141Z,102549
2016-12-27T08:09:55.346Z,102552
2016-12-27T08:10:55.935Z,102560
2016-12-27T08:11:55.432Z,102552
2016-12-27T08:12:56.029Z,102567
2016-12-27T08:13:56.140Z,102566
2016-12-27T08:15:56.210Z,102569
2016-12-27T08:16:56.260Z,102561
2016-12-27T08:17:56.268Z,102567
2016-12-27T08:18:55.793Z,102569
2016-12-27T08:19:55.863Z,102567
2016-12-27T08:20:56.452Z,102560
2016-12-27T08:21:56.500Z,102570
2016-12-27T08:22:56.478Z,102575
2016-12-27T08:23:56.535Z,102572
2016-12-27T08:24:56.044Z,102570
2016-12-27T08:25:56.156Z,102573
2016-12-27T08:26:56.719Z,102568
2016-12-27T08:27:56.763Z,102573
2016-12-27T08:28:56.312Z,102588
2016-12-27T08:29:56.845Z,102591
2016-12-27T08:30:56.876Z,102595
2016-12-27T08:31:56.899Z,102593
2016-12-27T08:32:56.382Z,102590
2016-12-27T08:33:56.490Z,102594
2016-12-27T08:34:56.499Z,102591
2016-12-27T08:35:57.053Z,102590
2016-12-27T08:36:56.543Z,102585
2016-12-27T08:37:57.167Z,102586
2016-12-27T08:38:57.236Z,102593
2016-12-27T08:39:56.758Z,102583
2016-12-27T08:40:57.318Z,102593
2016-12-27T08:41:57.331Z,102593
2016-12-27T08:42:57.460Z,102595
2016-12-27T08:43:57.489Z,102585
2016-12-27T08:44:57.084Z,102596
2016-12-27T08:45:57.591Z,102598
2016-12-27T08:46:57.656Z,102598
2016-12-27T08:47:57.767Z,102603
2016-12-27T08:48:57.275Z,102610
2016-12-27T08:49:57.285Z,102614
2016-12-27T08:50:57.417Z,102620
2016-12-27T08:51:57.980Z,102619
2016-12-27T08:52:58.102Z,102624
2016-12-27T08:53:57.616Z,102616
2016-12-27T08:54:58.212Z,102623
2016-12-27T08:55:57.738Z,102620
2016-12-27T08:56:57.781Z,102627
2016-12-27T08:57:58.327Z,102632
2016-12-27T08:58:58.383Z,102634
2016-12-27T08:59:57.856Z,102629
2016-12-27T09:00:58.482Z,102633
2016-12-27T09:01:58.582Z,102633
2016-12-27T09:02:58.069Z,102632
2016-12-27T09:03:58.658Z,102633
2016-12-27T09:04:58.635Z,102636
2016-12-27T09:05:58.668Z,102634
2016-12-27T09:06:58.235Z,102624
2016-12-27T09:07:58.279Z,102620
2016-12-27T09:08:58.880Z,102630
2016-12-27T09:09:58.392Z,102631
2016-12-27T09:10:58.961Z,102633
2016-12-27T09:11:58.993Z,102640
2016-12-27T09:12:58.522Z,102644
2016-12-27T09:13:58.631Z,102645
2016-12-27T09:14:58.706Z,102644
2016-12-27T09:15:59.289Z,102650
2016-12-27T09:16:59.295Z,102652
2016-12-27T09:17:58.802Z,102660
2016-12-27T09:18:59.466Z,102658
2016-12-27T09:19:59.488Z,102659
2016-12-27T09:20:59.033Z,102663
2016-12-27T09:21:59.673Z,102663
2016-12-27T09:22:59.220Z,102654
2016-12-27T09:23:59.265Z,102655
2016-12-27T09:24:59.887Z,102668
2016-12-27T09:25:59.394Z,102672
2016-12-27T09:26:59.507Z,102674
2016-12-27T09:27:59.523Z,102680
2016-12-27T09:29:00.082Z,102679
2016-12-27T09:30:00.111Z,102679
2016-12-27T09:30:59.632Z,102681
2016-12-27T09:32:00.256Z,102677
2016-12-27T09:32:59.831Z,102679
2016-12-27T09:34:00.391Z,102677
2016-12-27T09:35:00.387Z,102681
2016-12-27T09:35:59.920Z,102682
2016-12-27T09:36:59.983Z,102685
2016-12-27T09:38:00.048Z,102688
2016-12-27T09:47:46.218Z,102707
2016-12-27T09:48:46.212Z,102713
2016-12-27T09:49:46.353Z,102714
2016-12-27T09:50:46.376Z,102715
2016-12-27T09:51:46.459Z,102722
2016-12-27T09:52:46.034Z,102719
2016-12-27T09:53:46.612Z,102723
2016-12-27T09:54:46.633Z,102717
2016-12-27T09:55:46.223Z,102707
2016-12-27T09:56:46.249Z,102707
2016-12-27T09:57:46.367Z,102715
2016-12-27T09:59:46.994Z,102718
2016-12-27T10:00:47.039Z,102721
2016-12-27T10:01:47.045Z,102720
2016-12-27T10:02:47.162Z,102719
2016-12-27T10:03:46.673Z,102709
2016-12-27T10:04:46.759Z,102718
2016-12-27T10:05:46.839Z,102715
2016-12-27T10:06:47.405Z,102714
2016-12-27T10:07:46.891Z,102709
2016-12-27T10:08:46.962Z,102708
2016-12-27T10:09:47.554Z,102705
2016-12-27T10:10:47.656Z,102716
2016-12-27T10:11:47.185Z,102713
2016-12-27T10:12:47.720Z,102716
2016-12-27T10:13:47.262Z,102716
2016-12-27T10:14:47.298Z,102714
2016-12-27T10:15:47.381Z,102714
2016-12-27T10:16:47.417Z,102715
2016-12-27T10:17:47.419Z,102711
2016-12-27T10:18:47.485Z,102706
2016-12-27T10:19:47.495Z,102707
2016-12-27T10:20:47.545Z,102699
2016-12-27T10:21:48.101Z,102702
2016-12-27T10:22:48.107Z,102702
2016-12-27T10:23:48.213Z,102696
2016-12-27T10:24:47.813Z,102705
2016-12-27T10:25:47.854Z,102703
2016-12-27T10:26:47.925Z,102700
2016-12-27T10:31:48.284Z,102694
2016-12-27T10:32:48.289Z,102698
2016-12-27T10:33:48.269Z,102692
2016-12-27T10:34:48.935Z,102695
2016-12-27T10:35:49.016Z,102696
2016-12-27T10:36:48.505Z,102693
2016-12-27T10:37:48.627Z,102692
2016-12-27T10:38:49.149Z,102691
2016-12-27T10:39:48.624Z,102696
2016-12-27T10:40:49.226Z,102688
2016-12-27T10:41:48.794Z,102699
2016-12-27T10:42:48.897Z,102702
2016-12-27T10:43:49.528Z,102703
2016-12-27T10:44:49.107Z,102703
2016-12-27T10:45:49.804Z,102695
2016-12-27T10:46:49.812Z,102695
2016-12-27T10:47:49.927Z,102703
2016-12-27T12:02:53.795Z,102752
2016-12-27T12:03:53.371Z,102756
2016-12-27T12:04:53.960Z,102761
2016-12-27T12:05:54.054Z,102761
2016-12-27T12:06:53.556Z,102770
2016-12-27T12:07:53.650Z,102772
2016-12-27T12:08:53.798Z,102770
2016-12-27T12:09:53.819Z,102766
2016-12-27T12:10:54.472Z,102760
2016-12-27T12:11:54.472Z,102750
2016-12-27T12:12:54.511Z,102743
2016-12-27T12:13:53.999Z,102752
2016-12-27T12:14:54.582Z,102748
2016-12-27T12:15:54.636Z,102747
2016-12-27T12:16:54.629Z,102749
2016-12-27T12:17:54.121Z,102753
2016-12-27T12:18:54.694Z,102758
2016-12-27T12:19:54.803Z,102761
2016-12-27T12:20:54.809Z,102746
2016-12-27T12:21:54.373Z,102752
2016-12-27T12:22:54.922Z,102750
2016-12-27T12:23:55.062Z,102749
2016-12-27T12:24:54.586Z,102750
2016-12-27T12:25:55.154Z,102740
2016-12-27T12:26:55.186Z,102749
2016-12-27T12:27:54.791Z,102750
2016-12-27T12:28:55.318Z,102755
2016-12-27T12:29:54.866Z,102749
2016-12-27T12:30:55.419Z,102753
2016-12-27T12:31:54.965Z,102763
2016-12-27T12:32:54.939Z,102763
2016-12-27T12:33:55.531Z,102762
2016-12-27T12:34:55.058Z,102764
2016-12-27T12:35:55.637Z,102759
2016-12-27T12:36:55.123Z,102761
2016-12-27T12:37:55.791Z,102764
2016-12-27T12:38:55.278Z,102767
2016-12-27T12:39:55.875Z,102771
2016-12-27T12:40:55.347Z,102768
2016-12-27T12:41:55.372Z,102769
2016-12-27T12:42:55.991Z,102767
2016-12-27T12:43:56.030Z,102769
2016-12-27T12:44:55.502Z,102769
2016-12-27T12:45:56.104Z,102765
2016-12-27T12:46:55.632Z,102760
2016-12-27T12:47:55.714Z,102771
2016-12-27T12:48:56.250Z,102770
2016-12-27T12:49:56.309Z,102765
2016-12-27T12:50:55.801Z,102763
2016-12-27T12:51:55.888Z,102770
2016-12-27T12:52:55.871Z,102767
2016-12-27T12:53:56.482Z,102772
2016-12-27T12:54:56.555Z,102766
2016-12-27T12:55:56.086Z,102771
2016-12-27T12:56:56.130Z,102772
2016-12-27T12:57:56.164Z,102769
2016-12-27T12:58:56.258Z,102769
2016-12-27T12:59:56.330Z,102777
2016-12-27T13:00:56.437Z,102772
2016-12-27T13:01:57.039Z,102777
2016-12-27T13:02:57.033Z,102783
2016-12-27T13:03:57.041Z,102786
2016-12-27T13:04:56.568Z,102785
2016-12-27T13:05:56.640Z,102783
2016-12-27T13:06:57.256Z,102781
2016-12-27T13:07:56.696Z,102777
2016-12-27T13:08:56.690Z,102776
2016-12-27T13:09:56.766Z,102767
2016-12-27T13:10:56.889Z,102772
2016-12-27T13:11:57.444Z,102779
2016-12-27T13:12:56.977Z,102775
2016-12-27T13:13:56.945Z,102777
2016-12-27T13:14:56.993Z,102771
2016-12-27T13:15:57.012Z,102767
2016-12-27T13:16:57.018Z,102766
2016-12-27T13:17:57.742Z,102766
2016-12-27T13:18:57.736Z,102767
2016-12-27T13:19:57.200Z,102764
2016-12-27T13:20:57.275Z,102762
2016-12-27T13:21:57.826Z,102762
2016-12-27T13:22:57.400Z,102767
2016-12-27T13:23:57.472Z,102769
2016-12-27T13:24:57.472Z,102771
2016-12-27T13:25:58.093Z,102768
2016-12-27T13:26:57.576Z,102776
2016-12-27T13:27:57.641Z,102777
2016-12-27T13:28:58.248Z,102771
2016-12-27T13:29:58.304Z,102773
2016-12-27T13:30:58.381Z,102773
2016-12-27T13:31:58.385Z,102770
2016-12-27T13:32:57.884Z,102767
2016-12-27T13:33:57.941Z,102773
2016-12-27T13:34:57.990Z,102772
2016-12-27T13:35:58.004Z,102771
2016-12-27T13:36:58.072Z,102779
2016-12-27T13:37:58.602Z,102776
2016-12-27T13:38:58.152Z,102771
2016-12-27T13:39:58.779Z,102779
2016-12-27T13:40:58.369Z,102784
2016-12-27T13:41:58.977Z,102790
2016-12-27T13:42:58.520Z,102790
2016-12-27T13:43:58.575Z,102783
2016-12-27T13:44:58.610Z,102794
2016-12-27T13:45:58.661Z,102791
2016-12-27T13:46:58.697Z,102783
2016-12-27T13:47:59.270Z,102792
2016-12-27T13:48:58.732Z,102797
2016-12-27T13:49:58.823Z,102808
2016-12-27T13:50:59.404Z,102804
2016-12-27T13:51:59.475Z,102811
2016-12-27T13:52:58.995Z,102814
2016-12-27T13:53:59.616Z,102814
2016-12-27T13:54:59.194Z,102812
2016-12-27T13:55:59.323Z,102813
2016-12-27T13:56:59.856Z,102817
2016-12-27T13:57:59.327Z,102817
2016-12-27T13:58:59.322Z,102824
2016-12-27T13:59:59.934Z,102818
2016-12-27T14:00:59.450Z,102817
2016-12-27T14:02:00.030Z,102820
2016-12-27T14:03:00.075Z,102802
2016-12-27T14:04:00.076Z,102820
2016-12-27T14:04:59.623Z,102820
2016-12-27T14:06:00.147Z,102822
2016-12-27T14:07:00.241Z,102811
2016-12-27T14:07:59.808Z,102824
2016-12-27T14:09:00.339Z,102815
2016-12-27T14:10:00.426Z,102824
2016-12-27T14:11:00.473Z,102831
2016-12-27T14:12:00.062Z,102823
2016-12-27T14:13:00.046Z,102827
2016-12-27T14:14:00.671Z,102834
2016-12-27T14:15:00.127Z,102830
2016-12-27T14:16:00.795Z,102827
2016-12-27T14:17:00.811Z,102826
2016-12-27T14:18:00.786Z,102827
2016-12-27T14:19:00.861Z,102820
2016-12-27T14:20:00.899Z,102824
2016-12-27T14:21:00.915Z,102821
2016-12-27T14:22:00.412Z,102822
2016-12-27T14:23:01.000Z,102819
2016-12-27T14:24:00.518Z,102819
2016-12-27T14:25:01.122Z,102814
2016-12-27T14:26:00.664Z,102814
2016-12-27T14:27:00.779Z,102808
2016-12-27T14:28:00.790Z,102820
2016-12-27T14:29:00.884Z,102817
2016-12-27T14:30:00.985Z,102824
2016-12-27T14:31:01.068Z,102826